sensor_id;sensor_type;location;lat;lon;timestamp;P1;durP1;ratioP1;P2;durP2;ratioP2
51943;SDS011;37969;53.132;6.370;2022-07-29T00:00:37;6.07;;;1.50;;
51943;SDS011;37969;53.132;6.370;2022-07-29T00:03:03;3.55;;;1.13;;
51943;SDS011;37969;53.132;6.370;2022-07-29T00:05:30;1.88;;;1.10;;
51943;SDS011;37969;53.132;6.370;2022-07-29T00:07:56;4.25;;;1.35;;
51943;SDS011;37969;53.132;6.370;2022-07-29T00:10:25;3.53;;;1.42;;
51943;SDS011;37969;53.132;6.370;2022-07-29T00:12:52;5.78;;;1.20;;
51943;SDS011;37969;53.132;6.370;2022-07-29T00:15:19;4.03;;;1.40;;
51943;SDS011;37969;53.132;6.370;2022-07-29T00:17:45;2.60;;;1.23;;
51943;SDS011;37969;53.132;6.370;2022-07-29T00:20:11;4.72;;;1.00;;
51943;SDS011;37969;53.132;6.370;2022-07-29T00:22:38;1.67;;;1.02;;
51943;SDS011;37969;53.132;6.370;2022-07-29T00:25:05;2.33;;;1.30;;
51943;SDS011;37969;53.132;6.370;2022-07-29T00:27:34;3.40;;;1.30;;
51943;SDS011;37969;53.132;6.370;2022-07-29T00:30:01;2.97;;;1.73;;
51943;SDS011;37969;53.132;6.370;2022-07-29T00:32:28;8.07;;;1.35;;
51943;SDS011;37969;53.132;6.370;2022-07-29T00:34:54;3.70;;;1.40;;
51943;SDS011;37969;53.132;6.370;2022-07-29T00:37:44;2.88;;;1.20;;
51943;SDS011;37969;53.132;6.370;2022-07-29T00:40:12;3.50;;;1.40;;
51943;SDS011;37969;53.132;6.370;2022-07-29T00:42:42;4.03;;;1.50;;
51943;SDS011;37969;53.132;6.370;2022-07-29T00:45:11;3.17;;;1.45;;
51943;SDS011;37969;53.132;6.370;2022-07-29T00:47:37;3.67;;;1.30;;
51943;SDS011;37969;53.132;6.370;2022-07-29T00:50:04;3.85;;;1.20;;
51943;SDS011;37969;53.132;6.370;2022-07-29T00:52:31;4.22;;;1.55;;
51943;SDS011;37969;53.132;6.370;2022-07-29T00:54:57;3.05;;;1.23;;
51943;SDS011;37969;53.132;6.370;2022-07-29T00:57:25;4.30;;;1.40;;
51943;SDS011;37969;53.132;6.370;2022-07-29T00:59:53;5.10;;;1.17;;
51943;SDS011;37969;53.132;6.370;2022-07-29T01:02:19;4.45;;;1.40;;
51943;SDS011;37969;53.132;6.370;2022-07-29T01:04:45;5.22;;;1.38;;
51943;SDS011;37969;53.132;6.370;2022-07-29T01:07:11;4.13;;;1.45;;
51943;SDS011;37969;53.132;6.370;2022-07-29T01:09:37;4.57;;;1.20;;
51943;SDS011;37969;53.132;6.370;2022-07-29T01:12:04;2.58;;;1.40;;
51943;SDS011;37969;53.132;6.370;2022-07-29T01:14:30;2.65;;;1.35;;
51943;SDS011;37969;53.132;6.370;2022-07-29T01:16:59;6.82;;;1.83;;
51943;SDS011;37969;53.132;6.370;2022-07-29T01:19:33;4.53;;;1.45;;
51943;SDS011;37969;53.132;6.370;2022-07-29T01:22:14;3.85;;;1.60;;
51943;SDS011;37969;53.132;6.370;2022-07-29T01:29:45;4.25;;;1.38;;
51943;SDS011;37969;53.132;6.370;2022-07-29T01:32:15;4.95;;;1.35;;
51943;SDS011;37969;53.132;6.370;2022-07-29T01:34:48;3.08;;;1.45;;
51943;SDS011;37969;53.132;6.370;2022-07-29T01:37:19;2.70;;;1.58;;
51943;SDS011;37969;53.132;6.370;2022-07-29T01:39:48;5.32;;;1.95;;
51943;SDS011;37969;53.132;6.370;2022-07-29T01:44:57;3.83;;;1.60;;
51943;SDS011;37969;53.132;6.370;2022-07-29T01:47:26;6.20;;;1.80;;
51943;SDS011;37969;53.132;6.370;2022-07-29T01:49:54;2.85;;;1.80;;
51943;SDS011;37969;53.132;6.370;2022-07-29T01:52:28;4.25;;;1.45;;
51943;SDS011;37969;53.132;6.370;2022-07-29T01:55:00;6.25;;;1.70;;
51943;SDS011;37969;53.132;6.370;2022-07-29T01:57:29;3.42;;;1.70;;
51943;SDS011;37969;53.132;6.370;2022-07-29T02:00:03;5.90;;;1.65;;
51943;SDS011;37969;53.132;6.370;2022-07-29T02:02:30;4.45;;;1.65;;
51943;SDS011;37969;53.132;6.370;2022-07-29T02:05:00;6.32;;;1.80;;
51943;SDS011;37969;53.132;6.370;2022-07-29T02:07:29;4.93;;;1.90;;
51943;SDS011;37969;53.132;6.370;2022-07-29T02:09:59;3.60;;;1.42;;
51943;SDS011;37969;53.132;6.370;2022-07-29T02:12:28;3.07;;;1.87;;
51943;SDS011;37969;53.132;6.370;2022-07-29T02:14:59;5.38;;;1.95;;
51943;SDS011;37969;53.132;6.370;2022-07-29T02:17:27;1.83;;;1.45;;
51943;SDS011;37969;53.132;6.370;2022-07-29T02:19:58;2.67;;;1.52;;
51943;SDS011;37969;53.132;6.370;2022-07-29T02:22:26;3.25;;;1.73;;
51943;SDS011;37969;53.132;6.370;2022-07-29T02:24:58;3.85;;;1.95;;
51943;SDS011;37969;53.132;6.370;2022-07-29T02:27:26;7.05;;;2.20;;
51943;SDS011;37969;53.132;6.370;2022-07-29T02:29:54;5.05;;;2.00;;
51943;SDS011;37969;53.132;6.370;2022-07-29T02:32:24;6.00;;;1.80;;
51943;SDS011;37969;53.132;6.370;2022-07-29T02:34:53;4.45;;;1.90;;
51943;SDS011;37969;53.132;6.370;2022-07-29T02:37:23;7.75;;;1.85;;
51943;SDS011;37969;53.132;6.370;2022-07-29T02:39:52;6.68;;;2.05;;
51943;SDS011;37969;53.132;6.370;2022-07-29T02:42:19;5.03;;;1.80;;
51943;SDS011;37969;53.132;6.370;2022-07-29T02:44:48;4.18;;;1.58;;
51943;SDS011;37969;53.132;6.370;2022-07-29T02:47:20;6.20;;;1.50;;
51943;SDS011;37969;53.132;6.370;2022-07-29T02:49:52;3.10;;;1.40;;
51943;SDS011;37969;53.132;6.370;2022-07-29T02:52:23;3.38;;;1.58;;
51943;SDS011;37969;53.132;6.370;2022-07-29T02:54:51;5.25;;;1.90;;
51943;SDS011;37969;53.132;6.370;2022-07-29T02:57:23;5.82;;;1.80;;
51943;SDS011;37969;53.132;6.370;2022-07-29T02:59:51;4.20;;;1.30;;
51943;SDS011;37969;53.132;6.370;2022-07-29T03:02:18;5.55;;;1.80;;
51943;SDS011;37969;53.132;6.370;2022-07-29T03:04:46;5.57;;;1.67;;
51943;SDS011;37969;53.132;6.370;2022-07-29T03:07:14;4.05;;;1.42;;
51943;SDS011;37969;53.132;6.370;2022-07-29T03:09:41;2.72;;;1.50;;
51943;SDS011;37969;53.132;6.370;2022-07-29T03:12:10;4.45;;;1.70;;
51943;SDS011;37969;53.132;6.370;2022-07-29T03:14:39;4.57;;;2.00;;
51943;SDS011;37969;53.132;6.370;2022-07-29T03:17:06;3.60;;;1.55;;
51943;SDS011;37969;53.132;6.370;2022-07-29T03:19:32;6.03;;;1.60;;
51943;SDS011;37969;53.132;6.370;2022-07-29T03:21:59;2.95;;;1.60;;
51943;SDS011;37969;53.132;6.370;2022-07-29T03:26:56;4.25;;;1.60;;
51943;SDS011;37969;53.132;6.370;2022-07-29T03:29:23;5.95;;;1.75;;
51943;SDS011;37969;53.132;6.370;2022-07-29T03:31:49;6.55;;;1.95;;
51943;SDS011;37969;53.132;6.370;2022-07-29T03:34:15;5.22;;;1.50;;
51943;SDS011;37969;53.132;6.370;2022-07-29T03:36:42;4.05;;;1.80;;
51943;SDS011;37969;53.132;6.370;2022-07-29T03:39:09;5.60;;;1.60;;
51943;SDS011;37969;53.132;6.370;2022-07-29T03:41:38;2.40;;;1.40;;
51943;SDS011;37969;53.132;6.370;2022-07-29T03:44:06;4.43;;;1.98;;
51943;SDS011;37969;53.132;6.370;2022-07-29T03:46:33;4.90;;;1.73;;
51943;SDS011;37969;53.132;6.370;2022-07-29T03:49:01;6.95;;;1.75;;
51943;SDS011;37969;53.132;6.370;2022-07-29T03:51:28;2.70;;;1.70;;
51943;SDS011;37969;53.132;6.370;2022-07-29T03:54:02;2.95;;;1.42;;
51943;SDS011;37969;53.132;6.370;2022-07-29T03:56:28;3.00;;;1.63;;
51943;SDS011;37969;53.132;6.370;2022-07-29T03:59:03;4.90;;;1.88;;
51943;SDS011;37969;53.132;6.370;2022-07-29T04:01:30;6.32;;;1.95;;
51943;SDS011;37969;53.132;6.370;2022-07-29T04:03:58;4.15;;;1.60;;
51943;SDS011;37969;53.132;6.370;2022-07-29T04:06:24;5.05;;;1.60;;
51943;SDS011;37969;53.132;6.370;2022-07-29T04:08:52;5.45;;;2.00;;
51943;SDS011;37969;53.132;6.370;2022-07-29T04:11:21;3.70;;;1.55;;
51943;SDS011;37969;53.132;6.370;2022-07-29T04:13:47;4.20;;;1.70;;
51943;SDS011;37969;53.132;6.370;2022-07-29T04:16:16;4.55;;;1.80;;
51943;SDS011;37969;53.132;6.370;2022-07-29T04:18:45;4.95;;;1.75;;
51943;SDS011;37969;53.132;6.370;2022-07-29T04:21:12;6.13;;;1.92;;
51943;SDS011;37969;53.132;6.370;2022-07-29T04:23:39;1.77;;;1.52;;
51943;SDS011;37969;53.132;6.370;2022-07-29T04:26:06;4.63;;;1.88;;
51943;SDS011;37969;53.132;6.370;2022-07-29T04:28:35;6.43;;;1.50;;
51943;SDS011;37969;53.132;6.370;2022-07-29T04:31:04;6.18;;;2.10;;
51943;SDS011;37969;53.132;6.370;2022-07-29T04:33:30;8.23;;;2.25;;
51943;SDS011;37969;53.132;6.370;2022-07-29T04:35:58;6.85;;;1.80;;
51943;SDS011;37969;53.132;6.370;2022-07-29T04:38:24;3.20;;;2.22;;
51943;SDS011;37969;53.132;6.370;2022-07-29T04:40:53;3.35;;;1.50;;
51943;SDS011;37969;53.132;6.370;2022-07-29T04:43:19;5.15;;;1.70;;
51943;SDS011;37969;53.132;6.370;2022-07-29T04:45:47;7.25;;;1.95;;
51943;SDS011;37969;53.132;6.370;2022-07-29T04:48:15;3.80;;;1.80;;
51943;SDS011;37969;53.132;6.370;2022-07-29T04:50:43;2.72;;;1.73;;
51943;SDS011;37969;53.132;6.370;2022-07-29T04:53:09;7.07;;;1.75;;
51943;SDS011;37969;53.132;6.370;2022-07-29T04:55:38;6.07;;;2.10;;
51943;SDS011;37969;53.132;6.370;2022-07-29T04:58:04;5.50;;;1.77;;
51943;SDS011;37969;53.132;6.370;2022-07-29T05:00:32;4.55;;;1.63;;
51943;SDS011;37969;53.132;6.370;2022-07-29T05:03:03;5.35;;;1.65;;
51943;SDS011;37969;53.132;6.370;2022-07-29T05:05:29;4.75;;;1.70;;
51943;SDS011;37969;53.132;6.370;2022-07-29T05:07:55;6.10;;;2.10;;
51943;SDS011;37969;53.132;6.370;2022-07-29T05:10:23;2.35;;;1.67;;
51943;SDS011;37969;53.132;6.370;2022-07-29T05:12:49;4.78;;;1.63;;
51943;SDS011;37969;53.132;6.370;2022-07-29T05:15:15;4.22;;;1.80;;
51943;SDS011;37969;53.132;6.370;2022-07-29T05:17:45;7.85;;;1.83;;
51943;SDS011;37969;53.132;6.370;2022-07-29T05:20:13;4.40;;;1.80;;
51943;SDS011;37969;53.132;6.370;2022-07-29T05:25:09;6.18;;;2.00;;
51943;SDS011;37969;53.132;6.370;2022-07-29T05:27:36;5.88;;;1.80;;
51943;SDS011;37969;53.132;6.370;2022-07-29T05:30:02;5.38;;;1.90;;
51943;SDS011;37969;53.132;6.370;2022-07-29T05:32:33;4.88;;;1.75;;
51943;SDS011;37969;53.132;6.370;2022-07-29T05:34:59;10.95;;;1.80;;
51943;SDS011;37969;53.132;6.370;2022-07-29T05:37:26;4.50;;;1.63;;
51943;SDS011;37969;53.132;6.370;2022-07-29T05:39:52;5.70;;;1.42;;
51943;SDS011;37969;53.132;6.370;2022-07-29T05:42:19;8.63;;;1.90;;
51943;SDS011;37969;53.132;6.370;2022-07-29T05:44:47;6.85;;;1.90;;
51943;SDS011;37969;53.132;6.370;2022-07-29T05:47:20;5.50;;;1.75;;
51943;SDS011;37969;53.132;6.370;2022-07-29T05:49:55;7.70;;;1.80;;
51943;SDS011;37969;53.132;6.370;2022-07-29T05:52:24;3.73;;;1.40;;
51943;SDS011;37969;53.132;6.370;2022-07-29T05:54:51;4.90;;;1.77;;
51943;SDS011;37969;53.132;6.370;2022-07-29T05:57:17;5.88;;;1.88;;
51943;SDS011;37969;53.132;6.370;2022-07-29T05:59:43;7.25;;;1.95;;
51943;SDS011;37969;53.132;6.370;2022-07-29T06:02:13;3.05;;;1.80;;
51943;SDS011;37969;53.132;6.370;2022-07-29T06:04:39;7.43;;;1.83;;
51943;SDS011;37969;53.132;6.370;2022-07-29T06:07:06;4.55;;;1.92;;
51943;SDS011;37969;53.132;6.370;2022-07-29T06:09:32;6.15;;;1.80;;
51943;SDS011;37969;53.132;6.370;2022-07-29T06:11:59;6.25;;;1.70;;
51943;SDS011;37969;53.132;6.370;2022-07-29T06:14:26;5.43;;;2.00;;
51943;SDS011;37969;53.132;6.370;2022-07-29T06:16:53;3.15;;;1.70;;
51943;SDS011;37969;53.132;6.370;2022-07-29T06:19:20;7.78;;;1.70;;
51943;SDS011;37969;53.132;6.370;2022-07-29T06:21:46;3.47;;;1.65;;
51943;SDS011;37969;53.132;6.370;2022-07-29T06:24:14;4.03;;;1.95;;
51943;SDS011;37969;53.132;6.370;2022-07-29T06:26:42;4.70;;;1.92;;
51943;SDS011;37969;53.132;6.370;2022-07-29T06:29:08;5.25;;;1.80;;
51943;SDS011;37969;53.132;6.370;2022-07-29T06:31:38;4.20;;;1.80;;
51943;SDS011;37969;53.132;6.370;2022-07-29T06:34:04;3.30;;;1.88;;
51943;SDS011;37969;53.132;6.370;2022-07-29T06:36:33;4.82;;;1.80;;
51943;SDS011;37969;53.132;6.370;2022-07-29T06:39:00;6.38;;;1.92;;
51943;SDS011;37969;53.132;6.370;2022-07-29T06:41:26;4.05;;;1.70;;
51943;SDS011;37969;53.132;6.370;2022-07-29T06:43:53;7.57;;;2.05;;
51943;SDS011;37969;53.132;6.370;2022-07-29T06:46:22;6.07;;;1.80;;
51943;SDS011;37969;53.132;6.370;2022-07-29T06:48:50;3.45;;;2.00;;
51943;SDS011;37969;53.132;6.370;2022-07-29T06:51:17;7.10;;;2.00;;
51943;SDS011;37969;53.132;6.370;2022-07-29T06:53:44;8.10;;;2.08;;
51943;SDS011;37969;53.132;6.370;2022-07-29T06:56:17;6.28;;;2.38;;
51943;SDS011;37969;53.132;6.370;2022-07-29T06:58:50;6.03;;;1.85;;
51943;SDS011;37969;53.132;6.370;2022-07-29T07:01:16;4.63;;;1.92;;
51943;SDS011;37969;53.132;6.370;2022-07-29T07:03:42;12.65;;;2.00;;
51943;SDS011;37969;53.132;6.370;2022-07-29T07:06:12;6.13;;;1.80;;
51943;SDS011;37969;53.132;6.370;2022-07-29T07:08:41;4.93;;;1.70;;
51943;SDS011;37969;53.132;6.370;2022-07-29T07:11:08;4.38;;;2.05;;
51943;SDS011;37969;53.132;6.370;2022-07-29T07:13:37;4.68;;;1.52;;
51943;SDS011;37969;53.132;6.370;2022-07-29T07:16:09;8.30;;;1.80;;
51943;SDS011;37969;53.132;6.370;2022-07-29T07:18:35;7.68;;;2.10;;
51943;SDS011;37969;53.132;6.370;2022-07-29T07:21:02;7.97;;;2.17;;
51943;SDS011;37969;53.132;6.370;2022-07-29T07:23:30;8.35;;;1.98;;
51943;SDS011;37969;53.132;6.370;2022-07-29T07:25:58;6.45;;;2.03;;
51943;SDS011;37969;53.132;6.370;2022-07-29T07:28:24;6.35;;;2.00;;
51943;SDS011;37969;53.132;6.370;2022-07-29T07:30:50;4.93;;;2.00;;
51943;SDS011;37969;53.132;6.370;2022-07-29T07:33:17;5.78;;;2.35;;
51943;SDS011;37969;53.132;6.370;2022-07-29T07:35:44;3.10;;;1.90;;
51943;SDS011;37969;53.132;6.370;2022-07-29T07:38:10;6.03;;;2.22;;
51943;SDS011;37969;53.132;6.370;2022-07-29T07:40:40;3.45;;;1.95;;
51943;SDS011;37969;53.132;6.370;2022-07-29T07:43:11;7.35;;;1.92;;
51943;SDS011;37969;53.132;6.370;2022-07-29T07:45:39;6.57;;;1.90;;
51943;SDS011;37969;53.132;6.370;2022-07-29T07:48:06;5.57;;;1.80;;
51943;SDS011;37969;53.132;6.370;2022-07-29T07:50:35;4.85;;;1.50;;
51943;SDS011;37969;53.132;6.370;2022-07-29T07:53:11;5.75;;;2.05;;
51943;SDS011;37969;53.132;6.370;2022-07-29T07:55:40;4.72;;;1.60;;
51943;SDS011;37969;53.132;6.370;2022-07-29T07:58:06;4.03;;;1.65;;
51943;SDS011;37969;53.132;6.370;2022-07-29T08:00:33;4.90;;;1.98;;
51943;SDS011;37969;53.132;6.370;2022-07-29T08:02:59;4.90;;;1.75;;
51943;SDS011;37969;53.132;6.370;2022-07-29T08:05:26;5.25;;;1.92;;
51943;SDS011;37969;53.132;6.370;2022-07-29T08:07:57;5.75;;;2.20;;
51943;SDS011;37969;53.132;6.370;2022-07-29T08:10:23;5.20;;;1.90;;
51943;SDS011;37969;53.132;6.370;2022-07-29T08:13:09;5.57;;;2.05;;
51943;SDS011;37969;53.132;6.370;2022-07-29T08:15:42;4.35;;;1.80;;
51943;SDS011;37969;53.132;6.370;2022-07-29T08:18:12;5.30;;;2.35;;
51943;SDS011;37969;53.132;6.370;2022-07-29T08:20:43;5.20;;;2.10;;
51943;SDS011;37969;53.132;6.370;2022-07-29T08:23:10;4.80;;;2.20;;
51943;SDS011;37969;53.132;6.370;2022-07-29T08:25:36;5.25;;;1.83;;
51943;SDS011;37969;53.132;6.370;2022-07-29T08:28:04;6.35;;;2.05;;
51943;SDS011;37969;53.132;6.370;2022-07-29T08:30:32;5.78;;;2.10;;
51943;SDS011;37969;53.132;6.370;2022-07-29T08:32:58;4.32;;;1.98;;
51943;SDS011;37969;53.132;6.370;2022-07-29T08:35:25;4.28;;;2.10;;
51943;SDS011;37969;53.132;6.370;2022-07-29T08:37:52;5.75;;;2.10;;
51943;SDS011;37969;53.132;6.370;2022-07-29T08:40:23;4.63;;;2.20;;
51943;SDS011;37969;53.132;6.370;2022-07-29T08:42:49;6.22;;;1.70;;
51943;SDS011;37969;53.132;6.370;2022-07-29T08:45:16;5.45;;;2.17;;
51943;SDS011;37969;53.132;6.370;2022-07-29T08:47:44;5.28;;;2.30;;
51943;SDS011;37969;53.132;6.370;2022-07-29T08:50:11;4.20;;;1.92;;
51943;SDS011;37969;53.132;6.370;2022-07-29T08:52:40;5.57;;;2.00;;
51943;SDS011;37969;53.132;6.370;2022-07-29T08:55:12;3.55;;;1.92;;
51943;SDS011;37969;53.132;6.370;2022-07-29T08:57:41;5.10;;;2.05;;
51943;SDS011;37969;53.132;6.370;2022-07-29T09:02:39;8.13;;;2.42;;
51943;SDS011;37969;53.132;6.370;2022-07-29T09:05:06;7.45;;;2.13;;
51943;SDS011;37969;53.132;6.370;2022-07-29T09:07:33;6.45;;;2.10;;
51943;SDS011;37969;53.132;6.370;2022-07-29T09:10:00;6.90;;;2.00;;
51943;SDS011;37969;53.132;6.370;2022-07-29T09:12:30;4.50;;;2.25;;
51943;SDS011;37969;53.132;6.370;2022-07-29T09:14:59;11.27;;;2.53;;
51943;SDS011;37969;53.132;6.370;2022-07-29T09:17:39;5.68;;;2.20;;
51943;SDS011;37969;53.132;6.370;2022-07-29T09:20:09;7.78;;;2.25;;
51943;SDS011;37969;53.132;6.370;2022-07-29T09:22:35;7.07;;;2.17;;
51943;SDS011;37969;53.132;6.370;2022-07-29T09:25:02;8.50;;;2.45;;
51943;SDS011;37969;53.132;6.370;2022-07-29T09:27:32;3.65;;;2.10;;
51943;SDS011;37969;53.132;6.370;2022-07-29T09:35:22;6.38;;;2.42;;
51943;SDS011;37969;53.132;6.370;2022-07-29T09:37:49;7.72;;;2.00;;
51943;SDS011;37969;53.132;6.370;2022-07-29T09:40:19;6.40;;;2.50;;
51943;SDS011;37969;53.132;6.370;2022-07-29T09:42:48;5.45;;;2.28;;
51943;SDS011;37969;53.132;6.370;2022-07-29T09:45:29;8.40;;;2.35;;
51943;SDS011;37969;53.132;6.370;2022-07-29T09:47:55;4.20;;;2.10;;
51943;SDS011;37969;53.132;6.370;2022-07-29T09:50:35;3.15;;;2.03;;
51943;SDS011;37969;53.132;6.370;2022-07-29T09:53:04;6.93;;;2.03;;
51943;SDS011;37969;53.132;6.370;2022-07-29T09:55:47;10.57;;;2.78;;
51943;SDS011;37969;53.132;6.370;2022-07-29T09:58:17;6.68;;;2.25;;
51943;SDS011;37969;53.132;6.370;2022-07-29T10:00:48;5.57;;;2.53;;
51943;SDS011;37969;53.132;6.370;2022-07-29T10:03:16;5.90;;;2.60;;
51943;SDS011;37969;53.132;6.370;2022-07-29T10:05:43;7.88;;;2.53;;
51943;SDS011;37969;53.132;6.370;2022-07-29T10:08:10;8.82;;;2.42;;
51943;SDS011;37969;53.132;6.370;2022-07-29T10:10:40;5.30;;;2.30;;
51943;SDS011;37969;53.132;6.370;2022-07-29T10:13:11;7.18;;;2.35;;
51943;SDS011;37969;53.132;6.370;2022-07-29T10:15:41;6.32;;;2.38;;
51943;SDS011;37969;53.132;6.370;2022-07-29T10:18:16;5.43;;;2.55;;
51943;SDS011;37969;53.132;6.370;2022-07-29T10:20:45;4.72;;;2.35;;
51943;SDS011;37969;53.132;6.370;2022-07-29T10:23:11;5.60;;;2.50;;
51943;SDS011;37969;53.132;6.370;2022-07-29T10:25:37;5.72;;;2.25;;
51943;SDS011;37969;53.132;6.370;2022-07-29T10:28:05;6.18;;;2.50;;
51943;SDS011;37969;53.132;6.370;2022-07-29T10:30:31;6.82;;;2.40;;
51943;SDS011;37969;53.132;6.370;2022-07-29T10:35:54;6.55;;;2.05;;
51943;SDS011;37969;53.132;6.370;2022-07-29T10:43:51;6.40;;;2.00;;
51943;SDS011;37969;53.132;6.370;2022-07-29T10:46:22;4.10;;;2.20;;
51943;SDS011;37969;53.132;6.370;2022-07-29T10:49:04;9.23;;;3.22;;
51943;SDS011;37969;53.132;6.370;2022-07-29T10:57:10;6.60;;;2.60;;
51943;SDS011;37969;53.132;6.370;2022-07-29T10:59:39;6.60;;;2.60;;
51943;SDS011;37969;53.132;6.370;2022-07-29T11:02:44;7.20;;;2.33;;
51943;SDS011;37969;53.132;6.370;2022-07-29T11:05:11;5.63;;;2.08;;
51943;SDS011;37969;53.132;6.370;2022-07-29T11:07:38;6.80;;;2.30;;
51943;SDS011;37969;53.132;6.370;2022-07-29T11:10:19;5.95;;;2.45;;
51943;SDS011;37969;53.132;6.370;2022-07-29T11:12:46;7.90;;;2.58;;
51943;SDS011;37969;53.132;6.370;2022-07-29T11:15:13;4.88;;;2.20;;
51943;SDS011;37969;53.132;6.370;2022-07-29T11:22:59;5.93;;;2.45;;
51943;SDS011;37969;53.132;6.370;2022-07-29T11:25:28;6.80;;;2.45;;
51943;SDS011;37969;53.132;6.370;2022-07-29T11:27:54;8.95;;;2.58;;
51943;SDS011;37969;53.132;6.370;2022-07-29T11:30:47;5.03;;;2.08;;
51943;SDS011;37969;53.132;6.370;2022-07-29T11:33:28;8.27;;;2.45;;
51943;SDS011;37969;53.132;6.370;2022-07-29T11:36:06;9.73;;;2.25;;
51943;SDS011;37969;53.132;6.370;2022-07-29T11:38:34;6.13;;;2.20;;
51943;SDS011;37969;53.132;6.370;2022-07-29T11:41:23;10.27;;;2.30;;
51943;SDS011;37969;53.132;6.370;2022-07-29T11:43:55;8.38;;;2.33;;
51943;SDS011;37969;53.132;6.370;2022-07-29T11:49:08;5.88;;;2.70;;
51943;SDS011;37969;53.132;6.370;2022-07-29T11:51:37;6.32;;;2.50;;
51943;SDS011;37969;53.132;6.370;2022-07-29T11:54:03;6.07;;;2.40;;
51943;SDS011;37969;53.132;6.370;2022-07-29T11:56:34;10.98;;;2.40;;
51943;SDS011;37969;53.132;6.370;2022-07-29T11:59:10;7.32;;;2.63;;
51943;SDS011;37969;53.132;6.370;2022-07-29T12:01:51;6.80;;;2.78;;
51943;SDS011;37969;53.132;6.370;2022-07-29T12:04:18;4.68;;;2.30;;
51943;SDS011;37969;53.132;6.370;2022-07-29T12:06:49;6.70;;;2.33;;
51943;SDS011;37969;53.132;6.370;2022-07-29T12:09:20;6.80;;;2.67;;
51943;SDS011;37969;53.132;6.370;2022-07-29T12:11:47;9.65;;;2.70;;
51943;SDS011;37969;53.132;6.370;2022-07-29T12:14:26;4.72;;;2.20;;
51943;SDS011;37969;53.132;6.370;2022-07-29T12:16:52;4.85;;;2.47;;
51943;SDS011;37969;53.132;6.370;2022-07-29T12:19:19;6.18;;;2.38;;
51943;SDS011;37969;53.132;6.370;2022-07-29T12:21:46;8.95;;;2.67;;
51943;SDS011;37969;53.132;6.370;2022-07-29T12:24:13;5.05;;;2.17;;
51943;SDS011;37969;53.132;6.370;2022-07-29T12:26:53;5.03;;;2.67;;
51943;SDS011;37969;53.132;6.370;2022-07-29T12:29:22;5.03;;;2.50;;
51943;SDS011;37969;53.132;6.370;2022-07-29T12:31:52;5.35;;;2.35;;
51943;SDS011;37969;53.132;6.370;2022-07-29T12:34:19;6.80;;;2.55;;
51943;SDS011;37969;53.132;6.370;2022-07-29T12:36:53;5.65;;;2.55;;
51943;SDS011;37969;53.132;6.370;2022-07-29T12:39:21;6.10;;;2.67;;
51943;SDS011;37969;53.132;6.370;2022-07-29T12:41:51;3.92;;;2.10;;
51943;SDS011;37969;53.132;6.370;2022-07-29T12:44:18;8.65;;;2.65;;
51943;SDS011;37969;53.132;6.370;2022-07-29T12:47:01;3.80;;;2.10;;
51943;SDS011;37969;53.132;6.370;2022-07-29T12:49:28;8.30;;;2.15;;
51943;SDS011;37969;53.132;6.370;2022-07-29T12:51:57;12.50;;;2.90;;
51943;SDS011;37969;53.132;6.370;2022-07-29T12:54:23;11.27;;;2.40;;
51943;SDS011;37969;53.132;6.370;2022-07-29T12:56:58;7.45;;;2.35;;
51943;SDS011;37969;53.132;6.370;2022-07-29T12:59:25;3.08;;;2.30;;
51943;SDS011;37969;53.132;6.370;2022-07-29T13:01:52;5.68;;;2.70;;
51943;SDS011;37969;53.132;6.370;2022-07-29T13:06:57;7.28;;;2.10;;
51943;SDS011;37969;53.132;6.370;2022-07-29T13:09:35;3.63;;;1.95;;
51943;SDS011;37969;53.132;6.370;2022-07-29T13:12:05;7.97;;;1.88;;
51943;SDS011;37969;53.132;6.370;2022-07-29T13:14:36;6.70;;;1.75;;
51943;SDS011;37969;53.132;6.370;2022-07-29T13:17:08;5.00;;;2.15;;
51943;SDS011;37969;53.132;6.370;2022-07-29T13:19:38;4.82;;;1.60;;
51943;SDS011;37969;53.132;6.370;2022-07-29T13:22:06;7.03;;;1.63;;
51943;SDS011;37969;53.132;6.370;2022-07-29T13:24:33;4.30;;;1.70;;
51943;SDS011;37969;53.132;6.370;2022-07-29T13:27:00;4.93;;;1.80;;
51943;SDS011;37969;53.132;6.370;2022-07-29T13:29:27;6.75;;;1.98;;
51943;SDS011;37969;53.132;6.370;2022-07-29T13:31:54;5.63;;;1.85;;
51943;SDS011;37969;53.132;6.370;2022-07-29T13:34:21;5.07;;;1.80;;
51943;SDS011;37969;53.132;6.370;2022-07-29T13:36:49;8.13;;;2.45;;
51943;SDS011;37969;53.132;6.370;2022-07-29T13:39:18;7.88;;;2.22;;
51943;SDS011;37969;53.132;6.370;2022-07-29T13:41:44;6.43;;;2.00;;
51943;SDS011;37969;53.132;6.370;2022-07-29T13:44:13;13.02;;;2.50;;
51943;SDS011;37969;53.132;6.370;2022-07-29T13:46:49;7.30;;;1.88;;
51943;SDS011;37969;53.132;6.370;2022-07-29T13:49:18;5.38;;;2.10;;
51943;SDS011;37969;53.132;6.370;2022-07-29T13:51:44;5.75;;;1.90;;
51943;SDS011;37969;53.132;6.370;2022-07-29T13:54:10;7.20;;;2.00;;
51943;SDS011;37969;53.132;6.370;2022-07-29T13:56:37;7.32;;;2.20;;
51943;SDS011;37969;53.132;6.370;2022-07-29T13:59:08;6.60;;;2.35;;
51943;SDS011;37969;53.132;6.370;2022-07-29T14:04:07;6.97;;;2.03;;
51943;SDS011;37969;53.132;6.370;2022-07-29T14:06:34;9.60;;;1.92;;
51943;SDS011;37969;53.132;6.370;2022-07-29T14:09:05;5.57;;;1.75;;
51943;SDS011;37969;53.132;6.370;2022-07-29T14:11:33;7.70;;;1.67;;
51943;SDS011;37969;53.132;6.370;2022-07-29T14:13:59;7.28;;;2.22;;
51943;SDS011;37969;53.132;6.370;2022-07-29T14:16:26;4.50;;;1.98;;
51943;SDS011;37969;53.132;6.370;2022-07-29T14:18:52;3.22;;;1.83;;
51943;SDS011;37969;53.132;6.370;2022-07-29T14:21:18;12.35;;;2.30;;
51943;SDS011;37969;53.132;6.370;2022-07-29T14:23:45;6.22;;;1.85;;
51943;SDS011;37969;53.132;6.370;2022-07-29T14:26:11;7.68;;;2.00;;
51943;SDS011;37969;53.132;6.370;2022-07-29T14:28:39;6.00;;;2.30;;
51943;SDS011;37969;53.132;6.370;2022-07-29T14:31:09;6.72;;;1.95;;
51943;SDS011;37969;53.132;6.370;2022-07-29T14:33:37;4.50;;;1.83;;
51943;SDS011;37969;53.132;6.370;2022-07-29T14:36:04;4.28;;;1.75;;
51943;SDS011;37969;53.132;6.370;2022-07-29T14:38:35;4.65;;;1.83;;
51943;SDS011;37969;53.132;6.370;2022-07-29T14:41:11;5.65;;;1.90;;
51943;SDS011;37969;53.132;6.370;2022-07-29T14:46:08;5.43;;;1.80;;
51943;SDS011;37969;53.132;6.370;2022-07-29T14:48:40;4.82;;;2.10;;
51943;SDS011;37969;53.132;6.370;2022-07-29T14:51:06;7.07;;;2.20;;
51943;SDS011;37969;53.132;6.370;2022-07-29T14:53:33;3.78;;;1.80;;
51943;SDS011;37969;53.132;6.370;2022-07-29T14:56:00;7.15;;;1.75;;
51943;SDS011;37969;53.132;6.370;2022-07-29T14:58:26;4.82;;;1.80;;
51943;SDS011;37969;53.132;6.370;2022-07-29T15:00:53;4.10;;;1.63;;
51943;SDS011;37969;53.132;6.370;2022-07-29T15:03:20;6.63;;;1.90;;
51943;SDS011;37969;53.132;6.370;2022-07-29T15:05:46;3.53;;;1.77;;
51943;SDS011;37969;53.132;6.370;2022-07-29T15:08:15;5.53;;;1.60;;
51943;SDS011;37969;53.132;6.370;2022-07-29T15:10:41;7.32;;;1.67;;
51943;SDS011;37969;53.132;6.370;2022-07-29T15:13:08;9.18;;;1.98;;
51943;SDS011;37969;53.132;6.370;2022-07-29T15:15:34;5.30;;;1.50;;
51943;SDS011;37969;53.132;6.370;2022-07-29T15:18:01;3.28;;;1.35;;
51943;SDS011;37969;53.132;6.370;2022-07-29T15:20:28;6.38;;;1.55;;
51943;SDS011;37969;53.132;6.370;2022-07-29T15:22:54;8.77;;;1.80;;
51943;SDS011;37969;53.132;6.370;2022-07-29T15:25:21;4.00;;;1.50;;
51943;SDS011;37969;53.132;6.370;2022-07-29T15:27:47;5.93;;;1.73;;
51943;SDS011;37969;53.132;6.370;2022-07-29T15:30:17;6.20;;;1.90;;
51943;SDS011;37969;53.132;6.370;2022-07-29T15:32:46;3.45;;;2.00;;
51943;SDS011;37969;53.132;6.370;2022-07-29T15:35:14;4.43;;;1.80;;
51943;SDS011;37969;53.132;6.370;2022-07-29T15:37:42;9.50;;;1.73;;
51943;SDS011;37969;53.132;6.370;2022-07-29T15:40:08;3.80;;;1.73;;
51943;SDS011;37969;53.132;6.370;2022-07-29T15:42:35;4.05;;;1.48;;
51943;SDS011;37969;53.132;6.370;2022-07-29T15:45:02;9.65;;;2.10;;
51943;SDS011;37969;53.132;6.370;2022-07-29T15:47:29;5.43;;;2.15;;